Palmer, AK (99645)

9:59 AM AKDT on July 28, 2017 (GMT -0800)
Gold Cord Mine | | Change Station

Elev 4050 ft 61.80 °N, 149.29 °W | Updated 9 minutes ago

Overcast
Overcast
44.6 °F
Feels Like 44.6 °F
N
2.0
Wind Variable Wind from ESE
Gusts 4.0 mph

Today
High -- | Low -- °F
--% Chance of Precip.
Yesterday
High -- | Low -- °F
Precip. -- in
Pressure 29.98 in
Visibility 10.0 miles
Clouds Mostly Cloudy 5500 ft
Overcast 7000 ft
Dew Point 44.4 °F
Humidity 99%
Rainfall 0.02 in
Snow Depth Not available.
5:16 AM 10:47 PM
Waxing Crescent, 32% visible
METAR PAAQ 281753Z 00000KT 10SM BKN055 OVC070 14/11 A2997 RMK AO2 SLP150 T01440106 10144 20122 50000
Pressure 29.98 in
Visibility 10.0 miles
Clouds Mostly Cloudy 5500 ft
Overcast 7000 ft
Dew Point 44.4 °F
Humidity 99%
Rainfall 0.02 in
Snow Depth Not available.
5:16 AM 10:47 PM
Waxing Crescent, 32% visible
METAR PAAQ 281753Z 00000KT 10SM BKN055 OVC070 14/11 A2997 RMK AO2 SLP150 T01440106 10144 20122 50000

Get Severe Weather Alerts

Thanks for signing up!

Be on the lookout for a verification email in your inbox.

You'll start receiving the daily forecast at 6 AM.

×

10-Day Weather Forecast

Almanac

Astronomy

Jul. 28, 2017 Rise Set
Actual Time
Civil Twilight
Nautical Twilight
Astronomical Twilight
Moon
Length of Visible Light
Length of Day
Tomorrow will be .
, % of the Moon is Illuminated

Today's Extremes

State Highs State Lows

Community

WunderPhotos

Category 6

Welcome to Category 6. This is the collective home for Weather Underground's featured writeups by Dr. Jeff Masters (right), Bob Henson (left), Chris Burt, and other regular contributors.

Nearby

Air Quality

  Air Quality AQ Index Pollutant
Not available.

Snow Depth

Station Depth Elevation

Earthquake Activity

City Distance Mag. Time & Date
Minimum magnitude displayed is 2.5.

Coastal Water Temperatures

Place Temperature

Stations

Nearby Weather Stations

Station Location Temp. Windchill Dew Point Humidity Wind Precip. Elev Updated Type
                   

Watches & Warnings

There are currently no watches in effect.